Time;durP1;ratioP1;P1;durP2;ratioP2;P2;SDS_P1;SDS_P2;PMS_P1;PMS_P2;Temp;Humidity;BMP_temperature;BMP_pressure;BME280_temperature;BME280_humidity;BME280_pressure;Samples;Min_cycle;Max_cycle;Signal;HPM_P1;HPM_P2
2022/01/17 00:01:52;;;;;;;;;;;;;;;;;;7396833;19;19935;-44
2022/01/17 00:04:20;;;;;;;;;;;;;;;;;;7396175;19;19994;-50
2022/01/17 00:06:48;;;;;;;;;;;;;;;;;;7395090;19;19911;-45
2022/01/17 00:09:15;;;;;;;;;;;;;;;;;;7397953;19;19915;-45
2022/01/17 00:11:45;;;;;;;;;;;;;;;;;;7397311;19;19919;-45
2022/01/17 00:14:16;;;;;;;;;;;;;;;;;;7396113;19;19923;-44
2022/01/17 00:16:53;;;;;;;;;;;;;;;;;;7394555;19;19935;-47
2022/01/17 00:21:51;;;;;;;;;;;;;;;;;;7395557;19;19919;-44
2022/01/17 00:24:19;;;;;;;;;;;;;;;;;;7396163;19;19925;-43
2022/01/17 00:26:47;;;;;;;;;;;;;;;;;;7395936;19;19926;-48
2022/01/17 00:29:14;;;;;;;;;;;;;;;;;;7395237;19;19921;-45
2022/01/17 00:31:41;;;;;;;;;;;;;;;;;;7395408;19;19919;-44
2022/01/17 00:34:08;;;;;;;;;;;;;;;;;;7395385;19;19919;-44
2022/01/17 00:36:35;;;;;;;;;;;;;;;;;;7395138;19;20001;-48
2022/01/17 00:39:03;;;;;;;;;;;;;;;;;;7393896;19;19923;-44
2022/01/17 00:41:30;;;;;;;;;;;;;;;;;;7394662;19;20350;-44
2022/01/17 00:43:57;;;;;;;;;;;;;;;;;;7395456;19;19912;-44
2022/01/17 00:46:25;;;;;;;;;;;;;;;;;;7392595;19;19914;-44
2022/01/17 00:48:52;;;;;;;;;;;;;;;;;;7394483;19;19922;-45
2022/01/17 00:51:21;;;;;;;;;;;;;;;;;;7394767;19;19930;-45
2022/01/17 00:53:48;;;;;;;;;;;;;;;;;;7394781;19;19937;-44
2022/01/17 00:56:18;;;;;;;;;;;;;;;;;;7395092;19;19911;-45
2022/01/17 00:58:46;;;;;;;;;;;;;;;;;;7394609;19;19939;-44
2022/01/17 01:01:13;;;;;;;;;;;;;;;;;;7393168;19;19992;-45
2022/01/17 01:03:41;;;;;;;;;;;;;;;;;;7393489;19;19928;-47
2022/01/17 01:06:08;;;;;;;;;;;;;;;;;;7393404;19;19925;-50
2022/01/17 01:08:35;;;;;;;;;;;;;;;;;;7392476;19;19915;-46
2022/01/17 01:11:02;;;;;;;;;;;;;;;;;;7396013;19;19917;-45
2022/01/17 01:13:31;;;;;;;;;;;;;;;;;;7391828;19;19924;-45
2022/01/17 01:18:38;;;;;;;;;;;;;;;;;;7394140;19;19990;-45
2022/01/17 01:29:11;;;;;;;;;;;;;;;;;;7394249;19;19915;-45
2022/01/17 01:31:44;;;;;;;;;;;;;;;;;;7393693;19;19955;-46
2022/01/17 01:34:13;;;;;;;;;;;;;;;;;;7393374;19;19915;-46
2022/01/17 01:36:41;;;;;;;;;;;;;;;;;;7393661;19;20247;-46
2022/01/17 01:39:09;;;;;;;;;;;;;;;;;;7393755;19;19947;-44
2022/01/17 01:41:42;;;;;;;;;;;;;;;;;;7393663;19;19976;-44
2022/01/17 01:44:13;;;;;;;;;;;;;;;;;;7394637;19;19919;-45
2022/01/17 01:46:41;;;;;;;;;;;;;;;;;;7390673;19;19915;-45
2022/01/17 01:49:09;;;;;;;;;;;;;;;;;;7393606;19;19919;-46
2022/01/17 01:51:37;;;;;;;;;;;;;;;;;;7393181;19;19919;-44
2022/01/17 01:54:04;;;;;;;;;;;;;;;;;;7392478;19;19918;-45
2022/01/17 01:56:34;;;;;;;;;;;;;;;;;;7392683;19;19914;-46
2022/01/17 01:59:02;;;;;;;;;;;;;;;;;;7392891;19;19918;-45
2022/01/17 02:01:29;;;;;;;;;;;;;;;;;;7392198;19;19925;-44
2022/01/17 02:03:57;;;;;;;;;;;;;;;;;;7392774;19;19986;-47
2022/01/17 02:06:24;;;;;;;;;;;;;;;;;;7392816;19;19921;-45
2022/01/17 02:08:51;;;;;;;;;;;;;;;;;;7391960;19;19935;-47
2022/01/17 02:11:20;;;;;;;;;;;;;;;;;;7395217;19;19935;-46
2022/01/17 02:13:47;;;;;;;;;;;;;;;;;;7389198;19;19919;-44
2022/01/17 02:16:16;;;;;;;;;;;;;;;;;;7391864;19;19938;-48
2022/01/17 02:18:44;;;;;;;;;;;;;;;;;;7392698;19;19922;-45
2022/01/17 02:21:20;;;;;;;;;;;;;;;;;;7391922;19;19915;-45
2022/01/17 02:23:51;;;;;;;;;;;;;;;;;;7391964;19;19937;-44
2022/01/17 02:26:19;;;;;;;;;;;;;;;;;;7391087;19;19925;-46
2022/01/17 02:28:51;;;;;;;;;;;;;;;;;;7391643;19;19907;-47
2022/01/17 02:31:19;;;;;;;;;;;;;;;;;;7391789;19;19992;-47
2022/01/17 02:33:46;;;;;;;;;;;;;;;;;;7391395;19;19914;-47
2022/01/17 02:36:13;;;;;;;;;;;;;;;;;;7391954;19;19922;-48
2022/01/17 02:38:41;;;;;;;;;;;;;;;;;;7389750;19;19971;-46
2022/01/17 02:41:11;;;;;;;;;;;;;;;;;;7391565;19;19914;-46
2022/01/17 02:43:39;;;;;;;;;;;;;;;;;;7391468;19;19939;-46
2022/01/17 02:48:35;;;;;;;;;;;;;;;;;;7390947;19;19919;-45
2022/01/17 02:51:02;;;;;;;;;;;;;;;;;;7390518;19;19939;-46
2022/01/17 02:53:30;;;;;;;;;;;;;;;;;;7390894;19;19915;-47
2022/01/17 02:55:57;;;;;;;;;;;;;;;;;;7391489;19;19911;-44
2022/01/17 02:58:26;;;;;;;;;;;;;;;;;;7391028;19;19926;-46
2022/01/17 03:00:55;;;;;;;;;;;;;;;;;;7391608;19;19935;-46
2022/01/17 03:03:26;;;;;;;;;;;;;;;;;;7390495;19;19993;-48
2022/01/17 03:05:55;;;;;;;;;;;;;;;;;;7388985;19;19930;-45
2022/01/17 03:08:27;;;;;;;;;;;;;;;;;;7390329;19;19939;-45
2022/01/17 03:10:55;;;;;;;;;;;;;;;;;;7391589;19;19954;-45
2022/01/17 03:13:30;;;;;;;;;;;;;;;;;;7390626;19;19939;-48
2022/01/17 03:15:59;;;;;;;;;;;;;;;;;;7390342;19;19915;-45
2022/01/17 03:18:28;;;;;;;;;;;;;;;;;;7389982;19;19915;-45
2022/01/17 03:20:56;;;;;;;;;;;;;;;;;;7390248;19;19918;-46
2022/01/17 03:23:23;;;;;;;;;;;;;;;;;;7393078;19;19915;-44
2022/01/17 03:25:51;;;;;;;;;;;;;;;;;;7392946;19;19922;-45
2022/01/17 03:28:18;;;;;;;;;;;;;;;;;;7397932;19;19919;-45
2022/01/17 03:30:46;;;;;;;;;;;;;;;;;;7398341;19;19919;-46
2022/01/17 03:33:14;;;;;;;;;;;;;;;;;;7397881;19;19915;-45
2022/01/17 03:35:41;;;;;;;;;;;;;;;;;;7397079;19;19911;-47
2022/01/17 03:38:09;;;;;;;;;;;;;;;;;;7397528;19;20407;-44
2022/01/17 03:40:40;;;;;;;;;;;;;;;;;;7396722;19;19950;-47
2022/01/17 03:43:07;;;;;;;;;;;;;;;;;;7397265;19;19923;-44
2022/01/17 03:45:35;;;;;;;;;;;;;;;;;;7396946;19;19922;-46
2022/01/17 03:48:02;;;;;;;;;;;;;;;;;;7397295;19;19915;-47
2022/01/17 03:50:30;;;;;;;;;;;;;;;;;;7397421;19;20114;-45
2022/01/17 03:52:57;;;;;;;;;;;;;;;;;;7397007;19;19970;-47
2022/01/17 03:55:27;;;;;;;;;;;;;;;;;;7396569;19;20668;-46
2022/01/17 03:57:55;;;;;;;;;;;;;;;;;;7397424;19;19960;-47
2022/01/17 04:00:28;;;;;;;;;;;;;;;;;;7395763;19;19915;-45
2022/01/17 04:02:55;;;;;;;;;;;;;;;;;;7396804;19;19923;-46
2022/01/17 04:05:23;;;;;;;;;;;;;;;;;;7395942;19;19918;-46
2022/01/17 04:07:51;;;;;;;;;;;;;;;;;;7396446;19;19966;-45
2022/01/17 04:10:18;;;;;;;;;;;;;;;;;;7397247;19;19919;-45
2022/01/17 04:12:45;;;;;;;;;;;;;;;;;;7396674;19;19923;-47
2022/01/17 04:15:13;;;;;;;;;;;;;;;;;;7396154;19;20391;-46
2022/01/17 04:17:42;;;;;;;;;;;;;;;;;;7393411;19;19943;-44
2022/01/17 04:20:23;;;;;;;;;;;;;;;;;;7395746;19;20335;-45
2022/01/17 04:22:53;;;;;;;;;;;;;;;;;;7396803;19;19923;-47
2022/01/17 04:25:22;;;;;;;;;;;;;;;;;;7394708;19;19918;-46
2022/01/17 04:27:49;;;;;;;;;;;;;;;;;;7396102;19;20280;-46
2022/01/17 04:30:17;;;;;;;;;;;;;;;;;;7396156;19;19935;-45
2022/01/17 04:32:45;;;;;;;;;;;;;;;;;;7395058;19;19919;-45
2022/01/17 04:35:14;;;;;;;;;;;;;;;;;;7395759;19;20465;-45
2022/01/17 04:37:41;;;;;;;;;;;;;;;;;;7393426;19;19918;-47
2022/01/17 04:40:09;;;;;;;;;;;;;;;;;;7395074;19;20014;-45
2022/01/17 04:42:43;;;;;;;;;;;;;;;;;;7395026;19;19926;-47
2022/01/17 04:45:13;;;;;;;;;;;;;;;;;;7395190;19;19996;-44
2022/01/17 04:47:42;;;;;;;;;;;;;;;;;;7393173;19;19986;-44
2022/01/17 04:50:14;;;;;;;;;;;;;;;;;;7393068;19;19925;-44
2022/01/17 04:52:42;;;;;;;;;;;;;;;;;;7395436;19;19918;-48
2022/01/17 04:55:11;;;;;;;;;;;;;;;;;;7393225;19;20263;-47
2022/01/17 04:57:38;;;;;;;;;;;;;;;;;;7392835;19;19915;-45
2022/01/17 05:00:07;;;;;;;;;;;;;;;;;;7394815;19;19923;-44
2022/01/17 05:02:34;;;;;;;;;;;;;;;;;;7394852;19;19911;-51
2022/01/17 05:05:02;;;;;;;;;;;;;;;;;;7394689;19;19929;-48
2022/01/17 05:07:30;;;;;;;;;;;;;;;;;;7392257;19;19914;-48
2022/01/17 05:09:58;;;;;;;;;;;;;;;;;;7394274;19;19923;-46
2022/01/17 05:12:26;;;;;;;;;;;;;;;;;;7398135;19;19914;-47
2022/01/17 05:14:54;;;;;;;;;;;;;;;;;;7394742;19;19926;-47
2022/01/17 05:19:49;;;;;;;;;;;;;;;;;;7393620;19;19942;-46
2022/01/17 05:22:16;;;;;;;;;;;;;;;;;;7393857;19;19926;-51
2022/01/17 05:24:44;;;;;;;;;;;;;;;;;;7393297;19;19963;-44
2022/01/17 05:27:11;;;;;;;;;;;;;;;;;;7392320;19;19934;-49
2022/01/17 05:29:39;;;;;;;;;;;;;;;;;;7393142;19;20343;-44
2022/01/17 05:32:10;;;;;;;;;;;;;;;;;;7392059;19;19915;-47
2022/01/17 05:34:40;;;;;;;;;;;;;;;;;;7393831;19;19919;-43
2022/01/17 05:37:08;;;;;;;;;;;;;;;;;;7393794;19;20339;-45
2022/01/17 05:39:36;;;;;;;;;;;;;;;;;;7393608;19;20391;-44
2022/01/17 05:42:04;;;;;;;;;;;;;;;;;;7393563;19;20243;-48
2022/01/17 05:44:31;;;;;;;;;;;;;;;;;;7392750;19;19947;-46
2022/01/17 05:46:59;;;;;;;;;;;;;;;;;;7392777;19;19918;-45
2022/01/17 05:49:27;;;;;;;;;;;;;;;;;;7392627;19;19958;-48
2022/01/17 05:51:54;;;;;;;;;;;;;;;;;;7393442;19;19911;-48
2022/01/17 05:54:21;;;;;;;;;;;;;;;;;;7393468;19;19939;-45
2022/01/17 05:56:50;;;;;;;;;;;;;;;;;;7393211;19;19911;-52
2022/01/17 05:59:18;;;;;;;;;;;;;;;;;;7393083;19;19922;-44
2022/01/17 06:01:45;;;;;;;;;;;;;;;;;;7392744;19;20359;-50
2022/01/17 06:04:12;;;;;;;;;;;;;;;;;;7392974;19;19925;-48
2022/01/17 06:06:39;;;;;;;;;;;;;;;;;;7392461;19;19930;-47
2022/01/17 06:09:06;;;;;;;;;;;;;;;;;;7392923;19;19922;-43
2022/01/17 06:11:34;;;;;;;;;;;;;;;;;;7393043;19;19926;-51
2022/01/17 06:14:02;;;;;;;;;;;;;;;;;;7392458;19;19911;-45
2022/01/17 06:16:30;;;;;;;;;;;;;;;;;;7391354;19;20399;-47
2022/01/17 06:18:58;;;;;;;;;;;;;;;;;;7392250;19;19915;-44
2022/01/17 06:21:26;;;;;;;;;;;;;;;;;;7392279;19;19918;-47
2022/01/17 06:23:53;;;;;;;;;;;;;;;;;;7392541;19;19923;-44
2022/01/17 06:26:20;;;;;;;;;;;;;;;;;;7390988;19;19915;-43
2022/01/17 06:28:47;;;;;;;;;;;;;;;;;;7392179;19;19943;-44
2022/01/17 06:31:14;;;;;;;;;;;;;;;;;;7392042;19;19911;-45
2022/01/17 06:33:42;;;;;;;;;;;;;;;;;;7390732;19;19919;-44
2022/01/17 06:36:09;;;;;;;;;;;;;;;;;;7392492;19;19911;-44
2022/01/17 06:38:36;;;;;;;;;;;;;;;;;;7391240;19;19918;-46
2022/01/17 06:41:03;;;;;;;;;;;;;;;;;;7391985;19;19918;-45
2022/01/17 06:43:30;;;;;;;;;;;;;;;;;;7391564;19;19937;-47
2022/01/17 06:45:58;;;;;;;;;;;;;;;;;;7390799;19;20364;-46
2022/01/17 06:48:25;;;;;;;;;;;;;;;;;;7391337;19;19939;-44
2022/01/17 06:50:52;;;;;;;;;;;;;;;;;;7392243;19;19946;-46
2022/01/17 06:53:19;;;;;;;;;;;;;;;;;;7391043;19;20328;-45
2022/01/17 06:55:46;;;;;;;;;;;;;;;;;;7391477;19;19934;-47
2022/01/17 06:58:14;;;;;;;;;;;;;;;;;;7392056;19;19925;-44
2022/01/17 07:00:41;;;;;;;;;;;;;;;;;;7389877;19;19915;-49
2022/01/17 07:03:08;;;;;;;;;;;;;;;;;;7391203;19;19934;-44
2022/01/17 07:05:36;;;;;;;;;;;;;;;;;;7390721;19;19935;-44
2022/01/17 07:08:03;;;;;;;;;;;;;;;;;;7389238;19;19922;-45
2022/01/17 07:10:30;;;;;;;;;;;;;;;;;;7391688;19;20319;-44
2022/01/17 07:12:58;;;;;;;;;;;;;;;;;;7390923;19;19915;-44
2022/01/17 07:15:25;;;;;;;;;;;;;;;;;;7390572;19;19922;-47
2022/01/17 07:17:52;;;;;;;;;;;;;;;;;;7388743;19;20336;-45
2022/01/17 07:20:19;;;;;;;;;;;;;;;;;;7390325;19;19922;-48
2022/01/17 07:22:46;;;;;;;;;;;;;;;;;;7390571;19;20029;-46
2022/01/17 07:25:13;;;;;;;;;;;;;;;;;;7390031;19;20354;-44
2022/01/17 07:27:42;;;;;;;;;;;;;;;;;;7388112;19;19915;-45
2022/01/17 07:30:10;;;;;;;;;;;;;;;;;;7390656;19;19915;-45
2022/01/17 07:32:37;;;;;;;;;;;;;;;;;;7389768;19;19919;-44
2022/01/17 07:35:05;;;;;;;;;;;;;;;;;;7389321;19;19911;-44
2022/01/17 07:37:33;;;;;;;;;;;;;;;;;;7389941;19;19966;-45
2022/01/17 07:40:01;;;;;;;;;;;;;;;;;;7389368;19;20253;-45
2022/01/17 07:42:28;;;;;;;;;;;;;;;;;;7389546;19;19926;-45
2022/01/17 07:44:57;;;;;;;;;;;;;;;;;;7390201;19;19922;-46
2022/01/17 07:48:32;;;;;;;;;;;;;;;;;;7388425;19;19966;-47
2022/01/17 07:50:15;;;;;;;;;;;;;;;;;;7389251;19;19989;-44
2022/01/17 07:52:43;;;;;;;;;;;;;;;;;;7388866;19;19937;-49
2022/01/17 07:55:10;;;;;;;;;;;;;;;;;;7389265;19;19923;-45
2022/01/17 07:57:38;;;;;;;;;;;;;;;;;;7389312;19;20332;-45
2022/01/17 08:00:06;;;;;;;;;;;;;;;;;;7388871;19;19915;-47
2022/01/17 08:02:33;;;;;;;;;;;;;;;;;;7388700;19;19919;-47
2022/01/17 08:05:02;;;;;;;;;;;;;;;;;;7389234;19;19919;-45
2022/01/17 08:07:29;;;;;;;;;;;;;;;;;;7387040;19;19935;-44
2022/01/17 08:09:57;;;;;;;;;;;;;;;;;;7389193;19;20332;-45
2022/01/17 08:12:24;;;;;;;;;;;;;;;;;;7396350;19;19921;-44
2022/01/17 08:14:52;;;;;;;;;;;;;;;;;;7394619;19;20016;-44
2022/01/17 08:17:19;;;;;;;;;;;;;;;;;;7394052;19;20023;-45
2022/01/17 08:19:47;;;;;;;;;;;;;;;;;;7395277;19;20344;-44
2022/01/17 08:22:14;;;;;;;;;;;;;;;;;;7395605;19;20335;-47
2022/01/17 08:24:41;;;;;;;;;;;;;;;;;;7396018;19;20367;-49
2022/01/17 08:27:09;;;;;;;;;;;;;;;;;;7394434;19;19919;-44
2022/01/17 08:29:36;;;;;;;;;;;;;;;;;;7395240;19;19919;-45
2022/01/17 08:32:05;;;;;;;;;;;;;;;;;;7395343;19;19940;-44
2022/01/17 08:34:32;;;;;;;;;;;;;;;;;;7395817;19;19919;-47
2022/01/17 08:36:59;;;;;;;;;;;;;;;;;;7395673;19;19925;-44
2022/01/17 08:39:27;;;;;;;;;;;;;;;;;;7396084;19;19919;-45
2022/01/17 08:41:54;;;;;;;;;;;;;;;;;;7395600;19;19918;-46
2022/01/17 08:44:22;;;;;;;;;;;;;;;;;;7395863;19;19914;-47
2022/01/17 08:46:50;;;;;;;;;;;;;;;;;;7394316;19;19925;-49
2022/01/17 08:49:17;;;;;;;;;;;;;;;;;;7395091;19;19911;-44
2022/01/17 08:51:45;;;;;;;;;;;;;;;;;;7394589;19;20326;-45
2022/01/17 08:54:13;;;;;;;;;;;;;;;;;;7395227;19;19915;-43
2022/01/17 08:56:40;;;;;;;;;;;;;;;;;;7394457;19;19922;-42
2022/01/17 08:59:07;;;;;;;;;;;;;;;;;;7394931;19;19935;-44
2022/01/17 09:01:34;;;;;;;;;;;;;;;;;;7394075;19;19919;-44
2022/01/17 09:04:02;;;;;;;;;;;;;;;;;;7394813;19;19914;-44
2022/01/17 09:06:29;;;;;;;;;;;;;;;;;;7394808;19;19915;-47
2022/01/17 09:08:57;;;;;;;;;;;;;;;;;;7394706;19;19919;-45
2022/01/17 09:11:24;;;;;;;;;;;;;;;;;;7396831;19;19923;-47
2022/01/17 09:13:51;;;;;;;;;;;;;;;;;;7393990;19;20331;-47
2022/01/17 09:16:19;;;;;;;;;;;;;;;;;;7393197;19;19927;-46
2022/01/17 09:18:47;;;;;;;;;;;;;;;;;;7394186;19;19921;-44
2022/01/17 09:21:14;;;;;;;;;;;;;;;;;;7393783;19;20360;-44
2022/01/17 09:23:42;;;;;;;;;;;;;;;;;;7392957;19;19923;-43
2022/01/17 09:26:09;;;;;;;;;;;;;;;;;;7393368;19;20327;-44
2022/01/17 09:28:37;;;;;;;;;;;;;;;;;;7391563;19;19915;-45
2022/01/17 09:31:04;;;;;;;;;;;;;;;;;;7393234;19;19958;-45
2022/01/17 09:33:33;;;;;;;;;;;;;;;;;;7391605;19;19921;-44
2022/01/17 09:36:00;;;;;;;;;;;;;;;;;;7393054;19;19915;-55
2022/01/17 09:38:27;;;;;;;;;;;;;;;;;;7393838;19;19926;-43
2022/01/17 09:40:54;;;;;;;;;;;;;;;;;;7393655;19;19911;-44
2022/01/17 09:43:42;;;;;;;;;;;;;;;;;;7393487;19;19941;-43
2022/01/17 09:46:10;;;;;;;;;;;;;;;;;;7393350;19;19915;-46
2022/01/17 09:48:39;;;;;;;;;;;;;;;;;;7391585;19;19919;-44
2022/01/17 09:51:17;;;;;;;;;;;;;;;;;;7392558;19;19911;-48
2022/01/17 09:53:45;;;;;;;;;;;;;;;;;;7392801;19;19914;-45
2022/01/17 09:56:12;;;;;;;;;;;;;;;;;;7392658;19;19942;-46
2022/01/17 09:58:40;;;;;;;;;;;;;;;;;;7392299;19;19914;-56
2022/01/17 10:01:07;;;;;;;;;;;;;;;;;;7391910;19;19918;-45
2022/01/17 10:03:38;;;;;;;;;;;;;;;;;;7392317;19;20406;-43
2022/01/17 10:06:06;;;;;;;;;;;;;;;;;;7393247;19;19918;-46
2022/01/17 10:08:33;;;;;;;;;;;;;;;;;;7391181;19;19919;-45
2022/01/17 10:11:01;;;;;;;;;;;;;;;;;;7394343;19;19977;-45
2022/01/17 10:13:34;;;;;;;;;;;;;;;;;;7391496;19;20334;-45
2022/01/17 10:16:04;;;;;;;;;;;;;;;;;;7394345;19;19919;-48
2022/01/17 10:18:50;;;;;;;;;;;;;;;;;;7391063;19;19931;-50
2022/01/17 10:21:33;;;;;;;;;;;;;;;;;;7388804;19;20308;-53
2022/01/17 10:29:33;;;;;;;;;;;;;;;;;;7386663;19;20340;-45
2022/01/17 10:37:22;;;;;;;;;;;;;;;;;;7387417;19;19927;-46
2022/01/17 10:39:55;;;;;;;;;;;;;;;;;;7390340;19;20339;-44
2022/01/17 10:42:29;;;;;;;;;;;;;;;;;;7391085;19;19915;-43
2022/01/17 10:45:07;;;;;;;;;;;;;;;;;;7391940;19;20336;-43
2022/01/17 10:47:39;;;;;;;;;;;;;;;;;;7390228;19;19915;-44
2022/01/17 10:50:09;;;;;;;;;;;;;;;;;;7390896;19;20328;-44
2022/01/17 10:52:40;;;;;;;;;;;;;;;;;;7389542;19;19914;-44
2022/01/17 10:55:12;;;;;;;;;;;;;;;;;;7390996;19;19914;-44
2022/01/17 10:57:41;;;;;;;;;;;;;;;;;;7389618;19;19911;-43
2022/01/17 11:00:18;;;;;;;;;;;;;;;;;;7390114;19;19915;-45
2022/01/17 11:02:48;;;;;;;;;;;;;;;;;;7390487;19;20353;-43
2022/01/17 11:05:15;;;;;;;;;;;;;;;;;;7390670;19;20296;-45
2022/01/17 11:07:44;;;;;;;;;;;;;;;;;;7389813;19;19915;-48
2022/01/17 11:10:22;;;;;;;;;;;;;;;;;;7390340;19;19919;-44
2022/01/17 11:12:50;;;;;;;;;;;;;;;;;;7389933;19;19919;-48
2022/01/17 11:15:20;;;;;;;;;;;;;;;;;;7388298;19;19910;-44
2022/01/17 11:17:51;;;;;;;;;;;;;;;;;;7388484;19;20316;-50
2022/01/17 11:20:22;;;;;;;;;;;;;;;;;;7389700;19;20223;-47
2022/01/17 11:22:50;;;;;;;;;;;;;;;;;;7390248;19;19919;-47
2022/01/17 11:25:19;;;;;;;;;;;;;;;;;;7389705;19;19917;-43
2022/01/17 11:27:47;;;;;;;;;;;;;;;;;;7389182;19;19918;-47
2022/01/17 11:30:16;;;;;;;;;;;;;;;;;;7389747;19;20330;-44
2022/01/17 11:32:44;;;;;;;;;;;;;;;;;;7389931;19;19911;-45
2022/01/17 11:35:13;;;;;;;;;;;;;;;;;;7390128;19;19942;-45
2022/01/17 11:37:42;;;;;;;;;;;;;;;;;;7389841;19;19932;-44
2022/01/17 11:40:10;;;;;;;;;;;;;;;;;;7389465;19;19911;-45
2022/01/17 11:42:41;;;;;;;;;;;;;;;;;;7387881;19;19915;-44
2022/01/17 11:45:23;;;;;;;;;;;;;;;;;;7392455;19;19948;-43
2022/01/17 11:47:52;;;;;;;;;;;;;;;;;;7395515;19;20327;-46
2022/01/17 11:50:36;;;;;;;;;;;;;;;;;;7395075;19;19923;-44
2022/01/17 11:53:09;;;;;;;;;;;;;;;;;;7396613;19;20320;-46
2022/01/17 11:55:42;;;;;;;;;;;;;;;;;;7396944;19;19971;-44
2022/01/17 11:58:21;;;;;;;;;;;;;;;;;;7396567;19;19921;-44
2022/01/17 12:01:08;;;;;;;;;;;;;;;;;;7396351;19;20360;-44
2022/01/17 12:03:45;;;;;;;;;;;;;;;;;;7396269;19;19918;-45
2022/01/17 12:06:23;;;;;;;;;;;;;;;;;;7396750;19;19942;-43
2022/01/17 12:08:51;;;;;;;;;;;;;;;;;;7394840;19;19922;-45
2022/01/17 12:11:28;;;;;;;;;;;;;;;;;;7397870;19;19919;-45
2022/01/17 12:14:02;;;;;;;;;;;;;;;;;;7396387;19;19950;-44
2022/01/17 12:16:35;;;;;;;;;;;;;;;;;;7395666;19;19925;-47
2022/01/17 12:19:04;;;;;;;;;;;;;;;;;;7396221;19;19915;-46
2022/01/17 12:21:44;;;;;;;;;;;;;;;;;;7395114;19;19919;-46
2022/01/17 12:24:14;;;;;;;;;;;;;;;;;;7395744;19;19911;-44
2022/01/17 12:26:42;;;;;;;;;;;;;;;;;;7393255;19;20260;-44
2022/01/17 12:29:10;;;;;;;;;;;;;;;;;;7390720;19;19930;-45
2022/01/17 12:31:44;;;;;;;;;;;;;;;;;;7395327;19;19939;-45
2022/01/17 12:34:20;;;;;;;;;;;;;;;;;;7395416;19;19936;-44
2022/01/17 12:36:47;;;;;;;;;;;;;;;;;;7395542;19;19986;-43
2022/01/17 12:39:16;;;;;;;;;;;;;;;;;;7395247;19;20017;-43
2022/01/17 12:41:44;;;;;;;;;;;;;;;;;;7394974;19;19949;-47
2022/01/17 12:44:25;;;;;;;;;;;;;;;;;;7395357;19;19926;-43
2022/01/17 12:46:54;;;;;;;;;;;;;;;;;;7395525;19;19923;-46
2022/01/17 12:49:21;;;;;;;;;;;;;;;;;;7392783;19;20380;-47
2022/01/17 12:51:49;;;;;;;;;;;;;;;;;;7394643;19;19923;-45
2022/01/17 12:54:18;;;;;;;;;;;;;;;;;;7394891;19;19936;-43
2022/01/17 12:56:47;;;;;;;;;;;;;;;;;;7395125;19;19919;-44
2022/01/17 12:59:16;;;;;;;;;;;;;;;;;;7392677;19;19918;-44
2022/01/17 13:01:48;;;;;;;;;;;;;;;;;;7395388;19;19950;-47
2022/01/17 13:04:16;;;;;;;;;;;;;;;;;;7394461;19;20389;-48
2022/01/17 13:06:44;;;;;;;;;;;;;;;;;;7394451;19;19915;-43
2022/01/17 13:09:13;;;;;;;;;;;;;;;;;;7392824;19;20244;-45
2022/01/17 13:11:41;;;;;;;;;;;;;;;;;;7397053;19;20337;-43
2022/01/17 13:14:09;;;;;;;;;;;;;;;;;;7395134;19;19911;-45
2022/01/17 13:16:38;;;;;;;;;;;;;;;;;;7392651;19;19947;-45
2022/01/17 13:19:07;;;;;;;;;;;;;;;;;;7394564;19;19936;-45
2022/01/17 13:21:37;;;;;;;;;;;;;;;;;;7393940;19;19911;-45
2022/01/17 13:24:16;;;;;;;;;;;;;;;;;;7393671;19;19921;-45
2022/01/17 13:26:51;;;;;;;;;;;;;;;;;;7393810;19;19911;-44
2022/01/17 13:29:19;;;;;;;;;;;;;;;;;;7392188;19;20363;-51
2022/01/17 13:31:48;;;;;;;;;;;;;;;;;;7397527;19;20363;-44
2022/01/17 13:34:21;;;;;;;;;;;;;;;;;;7394101;19;19919;-44
2022/01/17 13:36:49;;;;;;;;;;;;;;;;;;7395605;19;19919;-43
2022/01/17 13:39:18;;;;;;;;;;;;;;;;;;7393192;19;20335;-44
2022/01/17 13:41:48;;;;;;;;;;;;;;;;;;7392962;19;19923;-43
2022/01/17 13:44:19;;;;;;;;;;;;;;;;;;7393634;19;19934;-44
2022/01/17 13:46:55;;;;;;;;;;;;;;;;;;7393169;19;19917;-43
2022/01/17 13:49:23;;;;;;;;;;;;;;;;;;7391662;19;19915;-45
2022/01/17 13:51:50;;;;;;;;;;;;;;;;;;7393099;19;19990;-45
2022/01/17 13:54:27;;;;;;;;;;;;;;;;;;7390973;19;19914;-43
2022/01/17 13:56:55;;;;;;;;;;;;;;;;;;7392861;19;19935;-45
2022/01/17 13:59:23;;;;;;;;;;;;;;;;;;7393355;19;19915;-44
2022/01/17 14:01:51;;;;;;;;;;;;;;;;;;7392352;19;19918;-45
2022/01/17 14:04:19;;;;;;;;;;;;;;;;;;7392318;19;19974;-44
2022/01/17 14:06:47;;;;;;;;;;;;;;;;;;7392658;19;19970;-45
2022/01/17 14:09:14;;;;;;;;;;;;;;;;;;7391426;19;19922;-46
2022/01/17 14:11:42;;;;;;;;;;;;;;;;;;7395286;19;19910;-49
2022/01/17 14:14:11;;;;;;;;;;;;;;;;;;7392183;19;19970;-46
2022/01/17 14:16:40;;;;;;;;;;;;;;;;;;7391365;19;19933;-45
2022/01/17 14:19:11;;;;;;;;;;;;;;;;;;7392085;19;19975;-45
2022/01/17 14:22:03;;;;;;;;;;;;;;;;;;7390697;19;19922;-44
2022/01/17 14:24:38;;;;;;;;;;;;;;;;;;7390145;19;19914;-47
2022/01/17 14:27:19;;;;;;;;;;;;;;;;;;7391954;19;19934;-43
2022/01/17 14:30:03;;;;;;;;;;;;;;;;;;7390687;19;19915;-44
2022/01/17 14:32:30;;;;;;;;;;;;;;;;;;7392243;19;20296;-44
2022/01/17 14:34:58;;;;;;;;;;;;;;;;;;7391766;19;20002;-45
2022/01/17 14:37:27;;;;;;;;;;;;;;;;;;7391932;19;19914;-47
2022/01/17 14:39:59;;;;;;;;;;;;;;;;;;7390742;19;19922;-43
2022/01/17 14:42:36;;;;;;;;;;;;;;;;;;7391498;19;19918;-47
2022/01/17 14:45:04;;;;;;;;;;;;;;;;;;7391545;19;19954;-48
2022/01/17 14:47:36;;;;;;;;;;;;;;;;;;7391154;19;19915;-43
2022/01/17 14:50:04;;;;;;;;;;;;;;;;;;7390273;19;19919;-44
2022/01/17 14:52:33;;;;;;;;;;;;;;;;;;7391490;19;19992;-43
2022/01/17 14:55:19;;;;;;;;;;;;;;;;;;7390855;19;19918;-46
2022/01/17 15:00:40;;;;;;;;;;;;;;;;;;7391124;19;19923;-45
2022/01/17 15:05:37;;;;;;;;;;;;;;;;;;7392741;19;19974;-46
2022/01/17 15:08:05;;;;;;;;;;;;;;;;;;7391192;19;19946;-43
2022/01/17 15:10:33;;;;;;;;;;;;;;;;;;7391119;19;19914;-45
2022/01/17 15:13:01;;;;;;;;;;;;;;;;;;7390676;19;20208;-46
2022/01/17 15:15:28;;;;;;;;;;;;;;;;;;7391078;19;19943;-49
2022/01/17 15:17:58;;;;;;;;;;;;;;;;;;7389399;19;19918;-50
2022/01/17 15:20:28;;;;;;;;;;;;;;;;;;7390666;19;19926;-48
2022/01/17 15:22:56;;;;;;;;;;;;;;;;;;7397235;19;19938;-51
2022/01/17 15:25:24;;;;;;;;;;;;;;;;;;7397728;19;19926;-46
2022/01/17 15:27:51;;;;;;;;;;;;;;;;;;7397340;19;20350;-45
2022/01/17 15:30:19;;;;;;;;;;;;;;;;;;7395090;19;19914;-49
2022/01/17 15:32:49;;;;;;;;;;;;;;;;;;7396399;19;19919;-46
2022/01/17 15:35:17;;;;;;;;;;;;;;;;;;7397260;19;19915;-48
2022/01/17 15:37:46;;;;;;;;;;;;;;;;;;7397964;19;19918;-48
2022/01/17 15:40:13;;;;;;;;;;;;;;;;;;7397026;19;19914;-46
2022/01/17 15:42:45;;;;;;;;;;;;;;;;;;7397736;19;19915;-43
2022/01/17 15:45:13;;;;;;;;;;;;;;;;;;7396834;19;19974;-44
2022/01/17 15:47:40;;;;;;;;;;;;;;;;;;7397267;19;19915;-44
2022/01/17 15:50:08;;;;;;;;;;;;;;;;;;7394175;19;19922;-47
2022/01/17 15:52:35;;;;;;;;;;;;;;;;;;7397117;19;19938;-44
2022/01/17 15:55:03;;;;;;;;;;;;;;;;;;7396986;19;19930;-45
2022/01/17 15:57:31;;;;;;;;;;;;;;;;;;7397594;19;19943;-44
2022/01/17 15:59:59;;;;;;;;;;;;;;;;;;7396356;19;19914;-49
2022/01/17 16:02:26;;;;;;;;;;;;;;;;;;7396925;19;19923;-45
2022/01/17 16:04:53;;;;;;;;;;;;;;;;;;7396900;19;19934;-49
2022/01/17 16:07:20;;;;;;;;;;;;;;;;;;7397031;19;20135;-52
2022/01/17 16:09:47;;;;;;;;;;;;;;;;;;7394509;19;19919;-44
2022/01/17 16:12:15;;;;;;;;;;;;;;;;;;7400002;19;19922;-43
2022/01/17 16:14:42;;;;;;;;;;;;;;;;;;7395626;19;19915;-51
2022/01/17 16:17:09;;;;;;;;;;;;;;;;;;7394854;19;19930;-46
2022/01/17 16:19:36;;;;;;;;;;;;;;;;;;7395722;19;19919;-47
2022/01/17 16:22:19;;;;;;;;;;;;;;;;;;7395325;19;20332;-46
2022/01/17 16:24:46;;;;;;;;;;;;;;;;;;7396185;19;19934;-44
2022/01/17 16:27:14;;;;;;;;;;;;;;;;;;7399264;19;19911;-51
2022/01/17 16:29:48;;;;;;;;;;;;;;;;;;7392697;19;19915;-51
2022/01/17 16:32:16;;;;;;;;;;;;;;;;;;7394627;19;19947;-47
2022/01/17 16:34:43;;;;;;;;;;;;;;;;;;7394097;19;19923;-46
2022/01/17 16:37:10;;;;;;;;;;;;;;;;;;7395732;19;19923;-44
2022/01/17 16:39:39;;;;;;;;;;;;;;;;;;7394942;19;19921;-46
2022/01/17 16:42:06;;;;;;;;;;;;;;;;;;7394785;19;19919;-47
2022/01/17 16:44:41;;;;;;;;;;;;;;;;;;7395235;19;20328;-44
2022/01/17 16:47:10;;;;;;;;;;;;;;;;;;7395329;19;19915;-47
2022/01/17 16:49:37;;;;;;;;;;;;;;;;;;7392876;19;19919;-45
2022/01/17 16:52:05;;;;;;;;;;;;;;;;;;7394535;19;19911;-47
2022/01/17 16:54:32;;;;;;;;;;;;;;;;;;7395264;19;19915;-46
2022/01/17 16:57:01;;;;;;;;;;;;;;;;;;7395082;19;19922;-45
2022/01/17 16:59:30;;;;;;;;;;;;;;;;;;7394552;19;19923;-49
2022/01/17 17:01:59;;;;;;;;;;;;;;;;;;7395089;19;19918;-44
2022/01/17 17:04:28;;;;;;;;;;;;;;;;;;7393942;19;19928;-51
2022/01/17 17:06:56;;;;;;;;;;;;;;;;;;7394707;19;19971;-48
2022/01/17 17:09:23;;;;;;;;;;;;;;;;;;7392736;19;20312;-49
2022/01/17 17:11:50;;;;;;;;;;;;;;;;;;7397260;19;20344;-45
2022/01/17 17:14:18;;;;;;;;;;;;;;;;;;7396771;19;19990;-47
2022/01/17 17:16:45;;;;;;;;;;;;;;;;;;7393135;19;19942;-47
2022/01/17 17:19:13;;;;;;;;;;;;;;;;;;7393366;19;19919;-44
2022/01/17 17:21:41;;;;;;;;;;;;;;;;;;7390407;19;20351;-44
2022/01/17 17:24:10;;;;;;;;;;;;;;;;;;7388411;19;19929;-44
2022/01/17 17:26:42;;;;;;;;;;;;;;;;;;7389287;19;19919;-46
2022/01/17 17:29:09;;;;;;;;;;;;;;;;;;7388570;19;20355;-45
2022/01/17 17:31:37;;;;;;;;;;;;;;;;;;7389241;19;19944;-44
2022/01/17 17:34:05;;;;;;;;;;;;;;;;;;7388981;19;19975;-45